Time;durP1;ratioP1;P1;durP2;ratioP2;P2;SDS_P1;SDS_P2;PMS_P1;PMS_P2;Temp;Humidity;BMP_temperature;BMP_pressure;BME280_temperature;BME280_humidity;BME280_pressure;Samples;Min_cycle;Max_cycle;Signal;HPM_P1;HPM_P2
2023/01/18 00:00:40;;;;;;;4.60;3.27;;;-0.20;56.20;;;;;;5005965;28;46469;-64
2023/01/18 00:03:11;;;;;;;4.93;3.08;;;-0.20;56.10;;;;;;5006549;28;46572;-64
2023/01/18 00:05:39;;;;;;;5.10;3.00;;;-0.10;56.10;;;;;;5007838;28;46504;-65
2023/01/18 00:08:09;;;;;;;5.13;2.80;;;-0.20;56.00;;;;;;5006008;28;46430;-64
2023/01/18 00:10:35;;;;;;;4.10;2.70;;;-0.10;56.00;;;;;;5004975;28;46030;-64
2023/01/18 00:13:00;;;;;;;4.90;3.10;;;-0.10;55.90;;;;;;5008123;28;45916;-64
2023/01/18 00:15:26;;;;;;;4.50;2.70;;;-0.10;56.00;;;;;;5007251;28;46461;-64
2023/01/18 00:17:51;;;;;;;4.67;2.97;;;-0.10;56.00;;;;;;5006960;28;46552;-65
2023/01/18 00:20:23;;;;;;;4.50;3.00;;;-0.10;56.00;;;;;;5007773;28;46434;-64
2023/01/18 00:22:49;;;;;;;5.82;3.25;;;-0.10;56.10;;;;;;5006005;28;46521;-63
2023/01/18 00:25:15;;;;;;;4.97;3.00;;;-0.20;55.70;;;;;;5007345;28;46506;-63
2023/01/18 00:27:51;;;;;;;5.88;3.20;;;-0.20;55.80;;;;;;5004948;28;47112;-63
2023/01/18 00:30:19;;;;;;;5.05;3.05;;;-0.20;55.70;;;;;;5007141;28;46425;-63
2023/01/18 00:32:52;;;;;;;4.47;2.97;;;-0.20;55.80;;;;;;5003822;28;46464;-64
2023/01/18 00:35:21;;;;;;;4.22;2.85;;;-0.20;56.00;;;;;;5006122;28;46135;-65
2023/01/18 00:37:50;;;;;;;5.35;2.90;;;-0.20;55.80;;;;;;5005116;28;47103;-63
2023/01/18 00:40:17;;;;;;;5.10;2.90;;;-0.20;55.90;;;;;;5005181;28;46299;-63
2023/01/18 00:45:27;;;;;;;5.60;3.03;;;-0.30;56.10;;;;;;5003784;28;46372;-64
2023/01/18 00:47:52;;;;;;;4.20;2.60;;;-0.40;56.20;;;;;;5006286;28;47002;-64
2023/01/18 00:50:19;;;;;;;3.30;2.40;;;-0.40;56.60;;;;;;5006565;28;46426;-63
2023/01/18 00:52:46;;;;;;;4.68;3.10;;;-0.40;56.60;;;;;;5005142;28;46382;-63
2023/01/18 00:55:13;;;;;;;2.85;1.92;;;-0.50;56.50;;;;;;5005235;28;46482;-65
2023/01/18 00:57:38;;;;;;;4.70;2.47;;;-0.50;56.50;;;;;;5004605;28;46095;-64
2023/01/18 01:00:10;;;;;;;4.30;2.50;;;-0.50;56.50;;;;;;5007087;28;46416;-64
2023/01/18 01:02:42;;;;;;;3.60;2.40;;;-0.60;56.40;;;;;;5005696;28;46656;-64
2023/01/18 01:08:00;;;;;;;4.07;2.92;;;-0.80;56.30;;;;;;5005857;28;46021;-64
2023/01/18 01:10:26;;;;;;;6.23;2.73;;;-0.90;56.80;;;;;;5006938;28;46373;-64
2023/01/18 01:26:33;;;;;;;3.85;2.45;;;-0.90;56.80;;;;;;5005899;28;46659;-65
2023/01/18 01:28:59;;;;;;;3.10;2.00;;;-0.80;56.60;;;;;;5001614;28;46462;-64
2023/01/18 01:31:24;;;;;;;3.70;2.33;;;-0.60;56.40;;;;;;5005937;28;45840;-65
2023/01/18 01:33:51;;;;;;;4.83;2.67;;;-0.70;56.30;;;;;;5006590;28;46563;-66
2023/01/18 01:36:19;;;;;;;3.92;3.00;;;-0.60;56.40;;;;;;5005982;28;46657;-65
2023/01/18 01:38:45;;;;;;;4.63;2.75;;;-0.50;56.50;;;;;;5003302;28;47471;-64
2023/01/18 01:41:14;;;;;;;4.00;2.50;;;-0.50;57.60;;;;;;5005181;28;45963;-65
2023/01/18 01:43:47;;;;;;;3.70;2.50;;;-0.50;56.50;;;;;;5010451;28;46487;-63
2023/01/18 01:46:26;;;;;;;3.45;2.60;;;-0.50;56.50;;;;;;5005618;28;46501;-65
2023/01/18 01:49:12;;;;;;;3.45;2.45;;;-0.40;56.60;;;;;;5005990;28;46221;-65
2023/01/18 01:51:43;;;;;;;4.30;2.45;;;-0.40;56.60;;;;;;5004195;28;46466;-66
2023/01/18 01:54:15;;;;;;;4.07;2.65;;;-0.40;56.60;;;;;;5004209;28;46381;-65
2023/01/18 01:56:42;;;;;;;5.13;2.50;;;-0.40;56.60;;;;;;5003911;28;46683;-65
2023/01/18 01:59:09;;;;;;;4.20;2.65;;;-0.40;56.60;;;;;;5018430;28;47028;-64
2023/01/18 02:01:35;;;;;;;10.00;2.85;;;-0.40;56.60;;;;;;4994113;28;46668;-63
2023/01/18 02:04:02;;;;;;;3.85;2.85;;;-0.40;56.60;;;;;;5005643;28;46447;-64
2023/01/18 02:06:35;;;;;;;4.85;3.20;;;-0.50;56.60;;;;;;5003989;28;46696;-64
2023/01/18 02:09:03;;;;;;;4.38;2.95;;;-0.50;56.80;;;;;;5003855;28;48179;-63
2023/01/18 02:11:29;;;;;;;4.32;2.83;;;-0.50;57.00;;;;;;5003691;28;46377;-64
2023/01/18 02:14:00;;;;;;;4.60;3.30;;;-0.50;57.20;;;;;;5004363;28;46566;-65
2023/01/18 02:16:35;;;;;;;4.82;3.03;;;-0.50;57.20;;;;;;5005171;28;46498;-64
2023/01/18 02:19:40;;;;;;;4.50;3.17;;;-0.40;57.20;;;;;;5002647;28;48066;-64
2023/01/18 02:22:26;;;;;;;7.75;3.05;;;-0.40;57.20;;;;;;5005995;28;46445;-64
2023/01/18 02:25:09;;;;;;;6.80;3.25;;;-0.40;57.20;;;;;;5002587;28;45824;-64
2023/01/18 02:27:46;;;;;;;4.72;3.70;;;-0.30;57.20;;;;;;5001726;28;46557;-66
2023/01/18 02:31:02;;;;;;;6.15;3.15;;;-0.30;57.00;;;;;;5004363;28;47270;-64
2023/01/18 02:33:58;;;;;;;4.20;3.00;;;-0.30;57.20;;;;;;4987681;28;46450;-65
2023/01/18 02:36:41;;;;;;;5.35;3.67;;;-0.30;57.10;;;;;;5004357;28;46619;-65
2023/01/18 02:39:22;;;;;;;5.78;3.65;;;-0.20;57.20;;;;;;5004951;28;46454;-64
2023/01/18 02:47:30;;;;;;;6.82;4.18;;;0.10;57.00;;;;;;5003138;28;46071;-66
2023/01/18 02:49:56;;;;;;;4.97;3.67;;;0.10;57.00;;;;;;5005412;28;46364;-66
2023/01/18 02:52:37;;;;;;;6.50;3.70;;;0.10;57.00;;;;;;5003473;28;46862;-66
2023/01/18 02:55:03;;;;;;;5.38;3.70;;;0.10;57.00;;;;;;5005580;28;46405;-65
2023/01/18 02:57:30;;;;;;;5.05;3.63;;;0.00;56.90;;;;;;5003993;28;45744;-65
2023/01/18 02:59:59;;;;;;;7.20;4.25;;;0.00;56.90;;;;;;5003746;28;47613;-65
2023/01/18 03:02:25;;;;;;;5.10;3.80;;;0.00;56.90;;;;;;5003331;28;46443;-65
2023/01/18 03:04:53;;;;;;;7.00;3.97;;;0.00;57.10;;;;;;5004499;28;46767;-65
2023/01/18 03:07:19;;;;;;;5.40;3.50;;;0.00;56.90;;;;;;5001810;28;46469;-64
2023/01/18 03:09:45;;;;;;;6.90;4.60;;;0.00;57.30;;;;;;5001555;28;45895;-66
2023/01/18 03:12:21;;;;;;;6.18;3.38;;;0.00;57.40;;;;;;5002675;28;46222;-64
2023/01/18 03:15:19;;;;;;;6.95;4.90;;;0.00;57.40;;;;;;5005002;28;46466;-64
2023/01/18 03:17:56;;;;;;;6.18;4.20;;;0.10;57.50;;;;;;5005153;28;46482;-64
2023/01/18 03:20:26;;;;;;;7.38;4.30;;;0.10;57.50;;;;;;5006237;28;46484;-65
2023/01/18 03:25:59;;;;;;;8.02;5.10;;;0.20;57.70;;;;;;5006892;28;46432;-66
2023/01/18 03:34:45;;;;;;;9.73;5.53;;;0.30;58.40;;;;;;5002537;28;46473;-65
2023/01/18 03:37:18;;;;;;;7.55;4.95;;;0.30;58.70;;;;;;5006499;28;46576;-66
2023/01/18 03:39:50;;;;;;;9.90;6.45;;;0.30;58.60;;;;;;5005486;28;46455;-65
2023/01/18 03:42:26;;;;;;;9.07;6.10;;;0.40;58.70;;;;;;5007410;28;46429;-64
2023/01/18 03:44:55;;;;;;;9.32;6.07;;;0.40;58.50;;;;;;5006924;28;46595;-65
2023/01/18 03:47:20;;;;;;;8.70;5.70;;;0.40;58.60;;;;;;5005801;28;46527;-65
2023/01/18 03:49:46;;;;;;;9.97;6.17;;;0.40;58.80;;;;;;5004919;28;46455;-64
2023/01/18 03:52:36;;;;;;;11.97;5.90;;;0.40;58.90;;;;;;5007362;28;46729;-65
2023/01/18 03:55:02;;;;;;;8.85;5.70;;;0.40;58.90;;;;;;5006799;28;47912;-66
2023/01/18 03:57:49;;;;;;;11.80;5.63;;;0.40;58.90;;;;;;5006857;28;46366;-64
2023/01/18 04:00:15;;;;;;;8.25;5.50;;;0.50;59.00;;;;;;5006180;28;46480;-64
2023/01/18 04:02:43;;;;;;;13.65;7.30;;;0.50;58.80;;;;;;5006925;28;45954;-63
2023/01/18 04:05:09;;;;;;;10.85;5.85;;;0.50;58.70;;;;;;5005742;28;47014;-63
2023/01/18 04:07:35;;;;;;;8.85;5.57;;;0.50;58.80;;;;;;5006862;28;46299;-64
2023/01/18 04:10:01;;;;;;;9.77;5.63;;;0.60;58.80;;;;;;5006774;28;45875;-64
2023/01/18 04:12:27;;;;;;;7.40;4.85;;;0.60;58.70;;;;;;5007095;28;46374;-63
2023/01/18 04:14:53;;;;;;;9.13;5.47;;;0.50;58.80;;;;;;5007018;28;47017;-64
2023/01/18 04:17:19;;;;;;;8.90;5.60;;;0.40;58.80;;;;;;5020268;28;45903;-65
2023/01/18 04:19:45;;;;;;;10.13;5.53;;;0.50;58.90;;;;;;5005761;28;46679;-65
2023/01/18 04:22:10;;;;;;;7.67;5.10;;;0.40;58.90;;;;;;5004629;28;46342;-64
2023/01/18 04:24:36;;;;;;;7.87;4.90;;;0.50;58.50;;;;;;5005824;28;46514;-65
2023/01/18 04:27:02;;;;;;;7.10;4.90;;;0.60;58.10;;;;;;5003382;28;46721;-63
2023/01/18 04:29:28;;;;;;;9.90;5.90;;;0.70;57.50;;;;;;5002761;28;46543;-65
2023/01/18 04:31:54;;;;;;;9.80;4.93;;;0.80;57.60;;;;;;5008757;28;45895;-65
2023/01/18 04:34:22;;;;;;;7.20;4.53;;;0.80;57.60;;;;;;5007149;28;47206;-64
2023/01/18 04:36:49;;;;;;;8.82;5.25;;;0.80;57.60;;;;;;5003875;28;46613;-65
2023/01/18 04:39:15;;;;;;;6.90;4.20;;;0.80;57.50;;;;;;5005821;28;46445;-65
2023/01/18 04:41:41;;;;;;;7.30;4.43;;;0.80;57.60;;;;;;5006408;28;46383;-65
2023/01/18 04:44:07;;;;;;;7.25;4.43;;;0.90;57.70;;;;;;5007917;28;46345;-64
2023/01/18 04:46:33;;;;;;;5.20;3.20;;;0.90;57.70;;;;;;5006420;28;46569;-64
2023/01/18 04:48:59;;;;;;;4.80;3.10;;;0.90;57.70;;;;;;5005152;28;45979;-65
2023/01/18 04:51:26;;;;;;;3.80;2.60;;;1.00;57.70;;;;;;5005749;28;46553;-65
2023/01/18 04:53:52;;;;;;;3.70;2.70;;;0.90;57.70;;;;;;5021849;28;47573;-64
2023/01/18 04:56:18;;;;;;;3.53;2.55;;;0.90;57.70;;;;;;5004064;28;46746;-64
2023/01/18 04:58:44;;;;;;;3.07;2.10;;;0.90;57.70;;;;;;5005348;28;46374;-65
2023/01/18 05:01:13;;;;;;;3.63;2.20;;;1.00;57.80;;;;;;5004730;28;46414;-64
2023/01/18 05:03:40;;;;;;;2.90;2.38;;;1.00;57.90;;;;;;5004372;28;46377;-64
2023/01/18 05:06:09;;;;;;;4.00;2.70;;;1.10;58.40;;;;;;5003646;28;46584;-64
2023/01/18 05:08:39;;;;;;;2.50;2.03;;;1.00;58.30;;;;;;5006001;28;46370;-64
2023/01/18 05:11:10;;;;;;;3.17;2.10;;;1.00;58.50;;;;;;5006638;28;46417;-65
2023/01/18 05:13:36;;;;;;;3.88;2.03;;;1.00;58.40;;;;;;5006064;28;47035;-64
2023/01/18 05:16:02;;;;;;;3.03;2.28;;;1.00;58.30;;;;;;5004693;28;46350;-65
2023/01/18 05:18:28;;;;;;;6.28;2.97;;;1.10;59.10;;;;;;5020767;28;46686;-64
2023/01/18 05:20:54;;;;;;;3.93;2.20;;;1.20;57.90;;;;;;5005293;28;46463;-65
2023/01/18 05:23:20;;;;;;;3.43;2.20;;;1.30;58.00;;;;;;5006946;28;47445;-64
2023/01/18 05:25:51;;;;;;;2.93;2.07;;;1.40;58.00;;;;;;5007315;28;46465;-64
2023/01/18 05:28:17;;;;;;;5.00;2.55;;;1.40;57.60;;;;;;5005296;28;46468;-65
2023/01/18 05:30:42;;;;;;;6.23;2.90;;;1.40;57.60;;;;;;5005966;28;46370;-64
2023/01/18 05:33:08;;;;;;;3.70;2.50;;;1.40;57.70;;;;;;5007079;28;47014;-65
2023/01/18 05:35:34;;;;;;;4.30;2.87;;;1.30;58.00;;;;;;5005767;28;46494;-66
2023/01/18 05:38:00;;;;;;;4.25;2.80;;;1.20;57.90;;;;;;5006608;28;46614;-65
2023/01/18 05:40:26;;;;;;;4.63;2.90;;;1.20;57.90;;;;;;5006057;28;46564;-65
2023/01/18 05:42:52;;;;;;;4.57;2.55;;;1.10;57.90;;;;;;5004115;28;46344;-64
2023/01/18 05:45:19;;;;;;;7.00;3.40;;;1.10;58.20;;;;;;5005395;28;46443;-65
2023/01/18 05:47:45;;;;;;;4.85;2.83;;;1.00;58.30;;;;;;5004021;28;46529;-64
2023/01/18 05:50:11;;;;;;;3.88;2.63;;;1.00;59.00;;;;;;5004754;28;46356;-65
2023/01/18 05:52:36;;;;;;;4.43;3.00;;;0.90;59.00;;;;;;5003336;28;46702;-64
2023/01/18 05:55:03;;;;;;;4.40;2.70;;;1.00;58.90;;;;;;5004266;28;46421;-64
2023/01/18 05:57:28;;;;;;;5.10;3.40;;;1.00;58.40;;;;;;5004095;28;46580;-64
2023/01/18 05:59:54;;;;;;;5.13;2.97;;;1.10;57.80;;;;;;5005100;28;46459;-65
2023/01/18 06:02:20;;;;;;;4.53;2.90;;;1.20;57.90;;;;;;5005831;28;46446;-66
2023/01/18 06:04:46;;;;;;;6.07;2.97;;;1.30;57.50;;;;;;5005617;28;45871;-66
2023/01/18 06:07:12;;;;;;;4.68;2.97;;;1.40;57.20;;;;;;5006859;28;46385;-64
2023/01/18 06:09:38;;;;;;;5.18;2.47;;;1.50;57.20;;;;;;5005380;28;46379;-65
2023/01/18 06:12:04;;;;;;;4.20;2.77;;;1.40;58.30;;;;;;5005307;28;46387;-64
2023/01/18 06:14:29;;;;;;;5.23;2.40;;;1.40;57.50;;;;;;5008594;28;46384;-66
2023/01/18 06:16:55;;;;;;;4.50;3.00;;;1.30;57.70;;;;;;5006236;28;46498;-65
2023/01/18 06:19:21;;;;;;;3.13;2.23;;;1.20;57.90;;;;;;5007844;28;46574;-65
2023/01/18 06:21:46;;;;;;;3.30;2.53;;;1.10;57.80;;;;;;5005204;28;46454;-65
2023/01/18 06:24:12;;;;;;;5.13;2.50;;;1.10;58.10;;;;;;5004110;28;46338;-66
2023/01/18 06:26:38;;;;;;;2.90;2.17;;;1.00;58.30;;;;;;5005458;28;46465;-64
2023/01/18 06:29:04;;;;;;;3.30;2.50;;;1.00;59.20;;;;;;5004600;28;46566;-64
2023/01/18 06:31:29;;;;;;;5.15;2.80;;;1.00;57.90;;;;;;5003370;28;47195;-63
2023/01/18 06:33:55;;;;;;;3.47;2.37;;;1.00;57.90;;;;;;5004045;28;46469;-63
2023/01/18 06:36:21;;;;;;;3.13;2.33;;;1.00;59.40;;;;;;5005135;28;46444;-65
2023/01/18 06:38:46;;;;;;;3.00;2.60;;;1.00;58.10;;;;;;5005628;28;45942;-64
2023/01/18 06:41:12;;;;;;;4.33;2.90;;;1.10;58.00;;;;;;5002819;28;47212;-63
2023/01/18 06:43:37;;;;;;;4.67;3.03;;;1.10;58.30;;;;;;5005849;28;46370;-63
2023/01/18 06:46:06;;;;;;;6.40;2.90;;;1.10;58.30;;;;;;5004570;28;46434;-64
2023/01/18 06:48:32;;;;;;;7.72;2.72;;;1.10;58.60;;;;;;5007827;28;46022;-63
2023/01/18 06:50:57;;;;;;;2.53;2.10;;;1.10;58.50;;;;;;5006519;28;46436;-64
2023/01/18 06:53:23;;;;;;;3.17;2.10;;;1.10;58.70;;;;;;5007977;28;46650;-64
2023/01/18 06:55:57;;;;;;;3.38;2.30;;;1.10;58.70;;;;;;5008688;28;46358;-63
2023/01/18 06:58:24;;;;;;;4.05;1.85;;;1.10;58.80;;;;;;5008709;28;45864;-64
2023/01/18 07:00:53;;;;;;;2.25;1.67;;;1.20;58.90;;;;;;5007084;28;46642;-64
2023/01/18 07:03:19;;;;;;;2.83;1.80;;;1.20;58.80;;;;;;5007840;28;45860;-63
2023/01/18 07:05:45;;;;;;;3.30;1.80;;;1.20;58.80;;;;;;5003099;28;45963;-63
2023/01/18 07:08:11;;;;;;;4.03;1.95;;;1.30;58.70;;;;;;5002829;28;46515;-63
2023/01/18 07:10:37;;;;;;;2.30;1.58;;;1.40;58.60;;;;;;5006368;28;47005;-64
2023/01/18 07:13:02;;;;;;;3.40;1.73;;;1.40;58.60;;;;;;4997728;28;46457;-65
2023/01/18 07:15:28;;;;;;;4.40;1.77;;;1.40;58.40;;;;;;5002600;28;45931;-64
2023/01/18 07:17:54;;;;;;;2.67;1.80;;;1.50;58.40;;;;;;5004444;28;46520;-64
2023/01/18 07:20:19;;;;;;;2.00;1.57;;;1.60;58.30;;;;;;5006619;28;46437;-63
2023/01/18 07:22:50;;;;;;;4.33;1.70;;;1.70;58.30;;;;;;5005793;28;46453;-62
2023/01/18 07:25:17;;;;;;;3.08;1.58;;;1.80;58.50;;;;;;5002492;28;46505;-64
2023/01/18 07:27:43;;;;;;;2.60;1.80;;;1.80;58.20;;;;;;5001732;28;47307;-64
2023/01/18 07:30:12;;;;;;;2.40;1.70;;;1.90;57.90;;;;;;5004230;28;46939;-64
2023/01/18 07:32:38;;;;;;;3.72;2.65;;;2.00;57.70;;;;;;5002535;28;46302;-64
2023/01/18 07:35:04;;;;;;;4.80;2.33;;;2.00;57.70;;;;;;5003202;28;46366;-65
2023/01/18 07:37:30;;;;;;;3.47;2.65;;;2.10;57.80;;;;;;5003065;28;46599;-62
2023/01/18 07:39:56;;;;;;;3.37;2.10;;;2.00;57.70;;;;;;5002051;28;47051;-64
2023/01/18 07:42:21;;;;;;;2.30;1.57;;;2.00;57.80;;;;;;5004515;28;46483;-64
2023/01/18 07:44:47;;;;;;;3.20;2.30;;;2.10;57.90;;;;;;5005017;28;46521;-63
2023/01/18 07:47:12;;;;;;;2.70;1.70;;;2.10;58.30;;;;;;5004069;28;46439;-63
2023/01/18 07:49:38;;;;;;;2.40;1.77;;;2.00;58.10;;;;;;5002166;28;47310;-63
2023/01/18 07:52:04;;;;;;;2.67;2.00;;;2.00;58.30;;;;;;5004847;28;46790;-64
2023/01/18 07:54:30;;;;;;;3.37;1.90;;;2.00;58.60;;;;;;5000904;28;45878;-65
2023/01/18 07:56:55;;;;;;;2.30;1.67;;;2.00;58.60;;;;;;5005043;28;46507;-63
2023/01/18 07:59:21;;;;;;;3.00;1.63;;;2.00;58.60;;;;;;5004049;28;46529;-63
2023/01/18 08:01:46;;;;;;;7.23;1.77;;;2.00;58.60;;;;;;5003666;28;45885;-64
2023/01/18 08:04:12;;;;;;;2.40;1.80;;;2.00;58.60;;;;;;5002500;28;46412;-63
2023/01/18 08:06:37;;;;;;;3.10;1.70;;;2.00;58.60;;;;;;5005045;28;46611;-65
2023/01/18 08:09:03;;;;;;;2.33;1.63;;;2.00;58.60;;;;;;5002647;28;46530;-64
2023/01/18 08:11:29;;;;;;;1.67;1.43;;;2.00;58.60;;;;;;5002313;28;46474;-63
2023/01/18 08:13:54;;;;;;;1.90;1.50;;;1.90;58.50;;;;;;5005672;28;46416;-65
2023/01/18 08:16:20;;;;;;;2.53;1.40;;;1.90;58.60;;;;;;5003154;28;46165;-64
2023/01/18 08:18:48;;;;;;;2.43;1.67;;;1.90;58.70;;;;;;5003865;28;46422;-64
2023/01/18 08:21:14;;;;;;;2.50;1.55;;;1.90;58.70;;;;;;5002447;28;46575;-63
2023/01/18 08:23:40;;;;;;;2.60;1.80;;;1.90;59.10;;;;;;4998657;28;46444;-63
2023/01/18 08:26:07;;;;;;;2.80;1.57;;;1.90;59.40;;;;;;5002945;28;46453;-64
2023/01/18 08:28:33;;;;;;;2.25;1.50;;;1.90;59.40;;;;;;5001549;28;47237;-64
2023/01/18 08:31:28;;;;;;;2.67;1.80;;;1.90;59.40;;;;;;5002134;28;47198;-64
2023/01/18 08:33:54;;;;;;;2.10;1.45;;;1.90;59.30;;;;;;5005707;28;46439;-64
2023/01/18 08:36:22;;;;;;;2.80;2.00;;;2.00;59.40;;;;;;5001267;28;46303;-63
2023/01/18 08:38:50;;;;;;;2.70;1.67;;;2.00;59.40;;;;;;4998864;28;47198;-64
2023/01/18 08:41:17;;;;;;;2.20;1.85;;;2.00;59.40;;;;;;5001871;28;46383;-64
2023/01/18 08:43:44;;;;;;;2.67;1.80;;;2.00;59.50;;;;;;5001448;28;46651;-66
2023/01/18 08:46:09;;;;;;;3.10;1.90;;;2.00;59.50;;;;;;5001149;28;46741;-65
2023/01/18 08:48:35;;;;;;;2.70;1.70;;;2.00;59.60;;;;;;5002027;28;46492;-64
2023/01/18 08:51:01;;;;;;;8.30;1.73;;;2.00;60.00;;;;;;5001962;28;46829;-64
2023/01/18 08:53:29;;;;;;;4.13;1.67;;;2.00;60.50;;;;;;5001817;28;46463;-65
2023/01/18 08:55:54;;;;;;;2.30;1.70;;;2.10;60.50;;;;;;5000870;28;46168;-67
2023/01/18 08:58:20;;;;;;;4.57;1.90;;;2.20;60.40;;;;;;5000935;28;47117;-64
2023/01/18 09:00:49;;;;;;;2.30;1.80;;;2.20;60.30;;;;;;5000371;28;46511;-66
2023/01/18 09:03:20;;;;;;;2.50;2.00;;;2.20;60.40;;;;;;5001447;28;45844;-69
2023/01/18 09:05:46;;;;;;;3.65;2.50;;;2.30;60.20;;;;;;5001897;28;46450;-63
2023/01/18 09:08:12;;;;;;;2.28;1.90;;;2.40;60.20;;;;;;4999036;28;46193;-63
2023/01/18 09:10:38;;;;;;;2.17;1.80;;;2.50;60.00;;;;;;5000942;28;46444;-63
2023/01/18 09:13:04;;;;;;;2.17;1.77;;;2.60;59.60;;;;;;4999933;28;46545;-63
2023/01/18 09:15:31;;;;;;;4.70;1.80;;;2.60;59.20;;;;;;4999774;28;46630;-62
2023/01/18 09:17:57;;;;;;;3.10;1.70;;;2.60;59.20;;;;;;4998796;28;46714;-64
2023/01/18 09:20:24;;;;;;;1.70;1.20;;;2.70;59.30;;;;;;5000501;28;46505;-65
2023/01/18 09:22:50;;;;;;;2.80;1.70;;;2.60;59.20;;;;;;5001358;28;46601;-63
2023/01/18 09:25:17;;;;;;;2.15;1.50;;;2.80;59.40;;;;;;5000260;28;46438;-64
2023/01/18 09:27:43;;;;;;;2.65;1.90;;;2.90;59.40;;;;;;4999039;28;46485;-65
2023/01/18 09:30:10;;;;;;;2.97;1.80;;;3.10;58.90;;;;;;5000659;28;46915;-64
2023/01/18 09:32:35;;;;;;;1.67;1.42;;;3.20;58.70;;;;;;5001481;28;45859;-63
2023/01/18 09:35:01;;;;;;;2.10;1.37;;;3.50;57.70;;;;;;5001588;28;46521;-63
2023/01/18 09:37:27;;;;;;;3.40;2.17;;;3.70;57.00;;;;;;5002459;28;46576;-65
2023/01/18 09:39:53;;;;;;;2.63;1.40;;;3.90;56.40;;;;;;5000259;28;46484;-64
2023/01/18 09:42:22;;;;;;;2.50;1.90;;;4.00;56.00;;;;;;5000210;28;46456;-65
2023/01/18 09:44:52;;;;;;;2.53;1.73;;;4.10;56.00;;;;;;5003683;28;46748;-65
2023/01/18 09:47:29;;;;;;;3.20;1.57;;;4.10;55.70;;;;;;4998123;28;46997;-64
2023/01/18 09:49:57;;;;;;;3.67;1.92;;;4.10;55.40;;;;;;5001221;28;46544;-64
2023/01/18 09:52:31;;;;;;;2.67;1.85;;;4.30;55.20;;;;;;5000217;28;45872;-64
2023/01/18 09:55:44;;;;;;;4.70;2.60;;;4.20;54.90;;;;;;4998655;28;46902;-64
2023/01/18 09:58:29;;;;;;;2.60;1.70;;;3.80;54.90;;;;;;4995393;28;46824;-64
2023/01/18 10:01:00;;;;;;;2.65;1.88;;;3.50;55.50;;;;;;5001232;28;46706;-62
2023/01/18 10:03:53;;;;;;;2.97;1.60;;;3.30;56.10;;;;;;4999744;28;46370;-66
2023/01/18 10:06:42;;;;;;;3.77;1.90;;;3.00;55.60;;;;;;5000363;28;46470;-69
2023/01/18 10:09:14;;;;;;;3.43;2.13;;;2.90;56.20;;;;;;4993650;28;46530;-64
2023/01/18 10:11:58;;;;;;;3.58;2.15;;;3.00;56.20;;;;;;5002259;28;46448;-64
2023/01/18 10:14:43;;;;;;;9.50;3.83;;;3.00;56.00;;;;;;4999760;28;46451;-66
2023/01/18 10:17:22;;;;;;;3.87;3.07;;;3.00;56.10;;;;;;4998732;28;46443;-65
2023/01/18 10:19:49;;;;;;;6.68;3.00;;;3.20;56.30;;;;;;5000141;28;46487;-65
2023/01/18 10:22:36;;;;;;;3.67;3.00;;;3.10;56.10;;;;;;4999320;28;46495;-65
2023/01/18 10:25:13;;;;;;;5.60;3.13;;;3.20;55.90;;;;;;4997884;28;46548;-65
2023/01/18 10:28:07;;;;;;;2.93;2.13;;;3.10;55.70;;;;;;5002113;28;46478;-65
2023/01/18 10:30:46;;;;;;;3.90;2.50;;;3.10;56.10;;;;;;5007522;28;46743;-65
2023/01/18 10:33:28;;;;;;;4.72;2.40;;;3.10;56.20;;;;;;4999316;28;46359;-66
2023/01/18 10:36:01;;;;;;;3.53;2.30;;;3.10;56.30;;;;;;4999931;28;46378;-64
2023/01/18 10:38:28;;;;;;;3.80;2.33;;;3.10;55.70;;;;;;4999614;28;46408;-68
2023/01/18 10:40:57;;;;;;;6.25;2.78;;;3.30;55.00;;;;;;5000778;28;47117;-66
2023/01/18 10:43:25;;;;;;;8.50;3.00;;;3.30;54.40;;;;;;4998163;28;46803;-63
2023/01/18 10:45:54;;;;;;;4.50;2.50;;;3.50;54.10;;;;;;5001408;28;46637;-65
2023/01/18 10:48:23;;;;;;;6.60;3.27;;;3.60;53.30;;;;;;5000659;28;46431;-62
2023/01/18 10:50:55;;;;;;;6.03;3.60;;;3.70;53.30;;;;;;4998871;28;46279;-64
2023/01/18 10:53:33;;;;;;;3.78;2.55;;;3.70;53.10;;;;;;4999656;28;46403;-63
2023/01/18 10:56:08;;;;;;;2.47;1.80;;;3.70;53.10;;;;;;5000620;28;46833;-63
2023/01/18 10:58:44;;;;;;;3.07;1.93;;;3.50;52.10;;;;;;5002180;28;46481;-63
2023/01/18 11:01:21;;;;;;;5.60;2.70;;;3.20;51.50;;;;;;4999598;28;46818;-64
2023/01/18 11:04:07;;;;;;;4.15;1.88;;;3.00;51.30;;;;;;5000668;28;45905;-63
2023/01/18 11:06:48;;;;;;;6.13;3.03;;;3.00;50.70;;;;;;5000392;28;46388;-64
2023/01/18 11:09:43;;;;;;;4.97;2.60;;;3.30;50.40;;;;;;4999170;28;46747;-64
2023/01/18 11:12:33;;;;;;;5.68;2.97;;;3.70;50.20;;;;;;4998438;28;46767;-62
2023/01/18 11:15:13;;;;;;;5.22;2.33;;;3.50;50.00;;;;;;5000565;28;46507;-62
2023/01/18 11:17:56;;;;;;;5.97;2.40;;;3.20;49.80;;;;;;5000673;28;45850;-63
2023/01/18 11:20:23;;;;;;;4.43;2.30;;;3.00;50.10;;;;;;5001101;28;46381;-63
2023/01/18 11:22:57;;;;;;;3.50;1.50;;;3.10;51.30;;;;;;5000917;28;46480;-63
2023/01/18 11:25:24;;;;;;;3.28;2.03;;;3.10;49.70;;;;;;4999925;28;46547;-62
2023/01/18 11:27:50;;;;;;;3.70;1.88;;;3.10;49.60;;;;;;4999649;28;46525;-64
2023/01/18 11:30:20;;;;;;;7.00;3.00;;;3.20;49.20;;;;;;4997316;28;46367;-65
2023/01/18 11:32:46;;;;;;;2.88;1.90;;;3.10;48.90;;;;;;4999371;28;46502;-65
2023/01/18 11:35:23;;;;;;;3.15;2.20;;;3.10;49.50;;;;;;5003586;28;46396;-63
2023/01/18 11:37:49;;;;;;;4.93;2.67;;;2.90;49.30;;;;;;4998472;28;46602;-64
2023/01/18 11:40:17;;;;;;;3.13;1.80;;;2.90;49.10;;;;;;5002422;28;46795;-61
2023/01/18 11:42:44;;;;;;;2.57;2.00;;;2.90;49.10;;;;;;5005683;28;47118;-62
2023/01/18 11:45:24;;;;;;;2.72;1.95;;;2.90;49.40;;;;;;5002942;28;46579;-63
2023/01/18 11:48:00;;;;;;;3.75;2.08;;;2.80;49.20;;;;;;5002473;28;45869;-65
2023/01/18 11:50:33;;;;;;;3.63;2.17;;;2.70;49.10;;;;;;5003157;28;47028;-63
2023/01/18 11:53:11;;;;;;;5.70;1.95;;;2.60;48.80;;;;;;5003198;28;46721;-64
2023/01/18 11:55:46;;;;;;;4.70;2.50;;;2.50;48.80;;;;;;5003799;28;46640;-66
2023/01/18 11:58:27;;;;;;;3.22;2.30;;;2.60;48.80;;;;;;5004917;28;46414;-64
2023/01/18 12:01:05;;;;;;;6.57;2.60;;;2.60;48.50;;;;;;5000039;28;46474;-63
2023/01/18 12:04:38;;;;;;;3.67;1.98;;;2.60;48.60;;;;;;5001835;28;47100;-63
2023/01/18 12:07:26;;;;;;;5.97;2.60;;;2.60;48.40;;;;;;4932584;28;46735;-65
2023/01/18 12:09:54;;;;;;;4.03;2.85;;;2.70;48.50;;;;;;5001562;28;46497;-63
2023/01/18 12:12:45;;;;;;;4.87;2.23;;;2.80;48.20;;;;;;5000827;28;46646;-63
2023/01/18 12:15:32;;;;;;;2.33;1.70;;;3.00;47.70;;;;;;5001669;28;46534;-63
2023/01/18 12:18:37;;;;;;;2.40;1.73;;;3.10;47.00;;;;;;4999403;28;46586;-63
2023/01/18 12:21:14;;;;;;;2.67;2.03;;;3.10;46.70;;;;;;5002661;28;45830;-64
2023/01/18 12:24:03;;;;;;;3.70;1.97;;;3.10;46.70;;;;;;5002824;28;46430;-62
2023/01/18 12:26:35;;;;;;;3.10;2.00;;;3.00;46.60;;;;;;5001133;28;47187;-62
2023/01/18 12:29:43;;;;;;;4.43;2.00;;;2.90;46.60;;;;;;5002415;28;46442;-62
2023/01/18 12:32:16;;;;;;;4.15;2.65;;;3.00;46.60;;;;;;5000443;28;46572;-64
2023/01/18 12:35:03;;;;;;;3.85;2.00;;;3.10;46.70;;;;;;5005882;28;46571;-63
2023/01/18 12:37:38;;;;;;;4.10;1.90;;;3.10;46.70;;;;;;5003751;28;46416;-63
2023/01/18 12:40:15;;;;;;;2.30;1.70;;;3.00;46.60;;;;;;5001620;28;45799;-63
2023/01/18 12:43:06;;;;;;;3.40;2.25;;;3.00;46.60;;;;;;5001151;28;46575;-63
2023/01/18 12:45:32;;;;;;;3.60;2.40;;;3.00;46.60;;;;;;4999926;28;46744;-63
2023/01/18 12:48:04;;;;;;;3.83;1.70;;;2.90;46.60;;;;;;5002751;28;46502;-63
2023/01/18 12:50:33;;;;;;;3.70;2.35;;;2.80;46.50;;;;;;5002531;28;46439;-63
2023/01/18 12:53:31;;;;;;;2.50;1.85;;;2.80;46.70;;;;;;5002704;28;46469;-64
2023/01/18 12:56:02;;;;;;;6.73;3.53;;;2.80;46.60;;;;;;5000907;28;46644;-63
2023/01/18 12:58:28;;;;;;;3.33;2.05;;;2.90;46.90;;;;;;5003117;28;46410;-61
2023/01/18 13:00:58;;;;;;;2.67;1.87;;;2.80;47.00;;;;;;5003406;28;46504;-62
2023/01/18 13:03:30;;;;;;;3.88;2.63;;;2.70;47.20;;;;;;5003854;28;46397;-63
2023/01/18 13:05:57;;;;;;;4.40;2.30;;;2.80;47.30;;;;;;5002606;28;45881;-64
2023/01/18 13:08:47;;;;;;;4.38;2.10;;;2.80;47.10;;;;;;4999379;28;46352;-64
2023/01/18 13:11:29;;;;;;;4.35;2.55;;;2.90;46.60;;;;;;5001423;28;46443;-67
2023/01/18 13:14:17;;;;;;;5.90;3.38;;;2.90;46.60;;;;;;5001641;28;46308;-63
2023/01/18 13:17:08;;;;;;;3.70;1.93;;;2.90;46.60;;;;;;5002031;28;46398;-65
2023/01/18 13:19:53;;;;;;;4.32;2.67;;;2.70;47.00;;;;;;4999960;28;46318;-63
2023/01/18 13:22:34;;;;;;;2.85;1.98;;;2.80;47.20;;;;;;5001571;28;46468;-64
2023/01/18 13:25:35;;;;;;;2.95;2.00;;;2.80;46.60;;;;;;5001856;28;45833;-65
2023/01/18 13:28:17;;;;;;;5.18;2.40;;;2.70;46.40;;;;;;4999492;28;46813;-65
2023/01/18 13:30:59;;;;;;;3.90;2.50;;;2.70;46.40;;;;;;5001407;28;46035;-64
2023/01/18 13:33:54;;;;;;;4.88;2.30;;;2.70;46.40;;;;;;4998905;28;46491;-62
2023/01/18 13:36:19;;;;;;;4.47;2.47;;;2.80;46.50;;;;;;5000701;28;46492;-62
2023/01/18 13:38:54;;;;;;;3.30;2.27;;;2.80;46.50;;;;;;4999227;28;46394;-63
2023/01/18 13:41:24;;;;;;;2.95;2.00;;;2.80;46.50;;;;;;5000165;28;45976;-64
2023/01/18 13:43:50;;;;;;;5.28;3.15;;;2.70;46.30;;;;;;5001190;28;46482;-67
2023/01/18 13:46:21;;;;;;;3.37;2.30;;;2.70;46.40;;;;;;4998923;28;46438;-64
2023/01/18 13:48:51;;;;;;;3.30;2.13;;;2.70;46.40;;;;;;4999643;28;46390;-63
2023/01/18 13:51:40;;;;;;;4.38;2.97;;;2.70;46.40;;;;;;5002463;28;46208;-64